sensor_id;sensor_type;location;lat;lon;timestamp;P1;durP1;ratioP1;P2;durP2;ratioP2
81056;SDS011;70563;50.084;14.468;2023-08-12T00:02:07;5.38;;;4.45;;
81056;SDS011;70563;50.084;14.468;2023-08-12T00:04:33;8.75;;;5.47;;
81056;SDS011;70563;50.084;14.468;2023-08-12T00:06:58;5.65;;;5.15;;
81056;SDS011;70563;50.084;14.468;2023-08-12T00:09:23;7.63;;;6.22;;
81056;SDS011;70563;50.084;14.468;2023-08-12T00:11:49;7.35;;;5.18;;
81056;SDS011;70563;50.084;14.468;2023-08-12T00:14:15;5.68;;;4.15;;
81056;SDS011;70563;50.084;14.468;2023-08-12T00:16:40;7.30;;;4.88;;
81056;SDS011;70563;50.084;14.468;2023-08-12T00:19:05;6.30;;;4.45;;
81056;SDS011;70563;50.084;14.468;2023-08-12T00:21:31;6.53;;;5.15;;
81056;SDS011;70563;50.084;14.468;2023-08-12T00:23:56;8.07;;;4.13;;
81056;SDS011;70563;50.084;14.468;2023-08-12T00:26:21;10.70;;;5.32;;
81056;SDS011;70563;50.084;14.468;2023-08-12T00:28:48;6.70;;;5.35;;
81056;SDS011;70563;50.084;14.468;2023-08-12T00:31:14;9.20;;;4.85;;
81056;SDS011;70563;50.084;14.468;2023-08-12T00:33:39;5.28;;;4.40;;
81056;SDS011;70563;50.084;14.468;2023-08-12T00:36:04;6.80;;;4.68;;
81056;SDS011;70563;50.084;14.468;2023-08-12T00:38:30;9.68;;;5.28;;
81056;SDS011;70563;50.084;14.468;2023-08-12T00:40:55;9.00;;;5.50;;
81056;SDS011;70563;50.084;14.468;2023-08-12T00:43:21;6.78;;;4.65;;
81056;SDS011;70563;50.084;14.468;2023-08-12T00:45:46;7.18;;;5.20;;
81056;SDS011;70563;50.084;14.468;2023-08-12T00:48:12;7.05;;;5.32;;
81056;SDS011;70563;50.084;14.468;2023-08-12T00:50:39;11.00;;;5.53;;
81056;SDS011;70563;50.084;14.468;2023-08-12T00:53:06;9.48;;;5.40;;
81056;SDS011;70563;50.084;14.468;2023-08-12T00:55:35;6.25;;;4.63;;
81056;SDS011;70563;50.084;14.468;2023-08-12T00:58:01;7.70;;;5.45;;
81056;SDS011;70563;50.084;14.468;2023-08-12T01:00:28;6.57;;;5.35;;
81056;SDS011;70563;50.084;14.468;2023-08-12T01:02:53;12.35;;;5.93;;
81056;SDS011;70563;50.084;14.468;2023-08-12T01:05:21;10.93;;;5.32;;
81056;SDS011;70563;50.084;14.468;2023-08-12T01:07:46;6.60;;;5.00;;
81056;SDS011;70563;50.084;14.468;2023-08-12T01:10:12;6.72;;;5.15;;
81056;SDS011;70563;50.084;14.468;2023-08-12T01:12:54;7.57;;;4.43;;
81056;SDS011;70563;50.084;14.468;2023-08-12T01:15:37;5.93;;;4.93;;
81056;SDS011;70563;50.084;14.468;2023-08-12T01:18:04;10.30;;;5.70;;
81056;SDS011;70563;50.084;14.468;2023-08-12T01:20:31;6.45;;;4.97;;
81056;SDS011;70563;50.084;14.468;2023-08-12T01:22:58;5.95;;;4.93;;
81056;SDS011;70563;50.084;14.468;2023-08-12T01:25:45;8.57;;;5.20;;
81056;SDS011;70563;50.084;14.468;2023-08-12T01:28:10;6.18;;;5.40;;
81056;SDS011;70563;50.084;14.468;2023-08-12T01:30:46;8.60;;;5.03;;
81056;SDS011;70563;50.084;14.468;2023-08-12T01:33:21;6.88;;;5.22;;
81056;SDS011;70563;50.084;14.468;2023-08-12T01:36:00;8.95;;;4.95;;
81056;SDS011;70563;50.084;14.468;2023-08-12T01:38:46;5.55;;;4.90;;
81056;SDS011;70563;50.084;14.468;2023-08-12T01:41:15;6.70;;;5.03;;
81056;SDS011;70563;50.084;14.468;2023-08-12T01:43:41;8.05;;;5.20;;
81056;SDS011;70563;50.084;14.468;2023-08-12T01:46:08;6.75;;;5.25;;
81056;SDS011;70563;50.084;14.468;2023-08-12T01:48:34;7.22;;;4.85;;
81056;SDS011;70563;50.084;14.468;2023-08-12T01:50:59;11.52;;;5.82;;
81056;SDS011;70563;50.084;14.468;2023-08-12T01:53:24;9.55;;;4.88;;
81056;SDS011;70563;50.084;14.468;2023-08-12T01:55:50;6.60;;;5.15;;
81056;SDS011;70563;50.084;14.468;2023-08-12T01:58:16;9.05;;;5.32;;
81056;SDS011;70563;50.084;14.468;2023-08-12T02:00:42;8.35;;;5.22;;
81056;SDS011;70563;50.084;14.468;2023-08-12T02:03:07;10.00;;;5.28;;
81056;SDS011;70563;50.084;14.468;2023-08-12T02:05:33;8.80;;;4.80;;
81056;SDS011;70563;50.084;14.468;2023-08-12T02:07:58;6.75;;;5.25;;
81056;SDS011;70563;50.084;14.468;2023-08-12T02:10:24;6.35;;;4.72;;
81056;SDS011;70563;50.084;14.468;2023-08-12T02:12:49;8.27;;;5.32;;
81056;SDS011;70563;50.084;14.468;2023-08-12T02:15:15;6.47;;;5.15;;
81056;SDS011;70563;50.084;14.468;2023-08-12T02:17:40;7.70;;;4.95;;
81056;SDS011;70563;50.084;14.468;2023-08-12T02:20:06;8.15;;;5.75;;
81056;SDS011;70563;50.084;14.468;2023-08-12T02:22:32;10.30;;;5.38;;
81056;SDS011;70563;50.084;14.468;2023-08-12T02:24:57;8.48;;;5.53;;
81056;SDS011;70563;50.084;14.468;2023-08-12T02:27:23;7.32;;;5.38;;
81056;SDS011;70563;50.084;14.468;2023-08-12T02:29:48;8.75;;;5.57;;
81056;SDS011;70563;50.084;14.468;2023-08-12T02:32:13;8.32;;;5.50;;
81056;SDS011;70563;50.084;14.468;2023-08-12T02:34:39;8.13;;;5.72;;
81056;SDS011;70563;50.084;14.468;2023-08-12T02:37:04;6.40;;;5.38;;
81056;SDS011;70563;50.084;14.468;2023-08-12T02:39:29;8.23;;;6.38;;
81056;SDS011;70563;50.084;14.468;2023-08-12T02:41:55;7.85;;;6.00;;
81056;SDS011;70563;50.084;14.468;2023-08-12T02:44:20;6.97;;;5.93;;
81056;SDS011;70563;50.084;14.468;2023-08-12T02:46:45;7.57;;;5.45;;
81056;SDS011;70563;50.084;14.468;2023-08-12T02:49:11;8.98;;;5.95;;
81056;SDS011;70563;50.084;14.468;2023-08-12T02:51:36;8.98;;;5.72;;
81056;SDS011;70563;50.084;14.468;2023-08-12T02:54:02;6.80;;;5.97;;
81056;SDS011;70563;50.084;14.468;2023-08-12T02:56:27;7.05;;;5.32;;
81056;SDS011;70563;50.084;14.468;2023-08-12T02:58:52;15.85;;;6.70;;
81056;SDS011;70563;50.084;14.468;2023-08-12T03:01:18;10.20;;;5.88;;
81056;SDS011;70563;50.084;14.468;2023-08-12T03:03:44;10.10;;;5.93;;
81056;SDS011;70563;50.084;14.468;2023-08-12T03:06:09;6.85;;;5.70;;
81056;SDS011;70563;50.084;14.468;2023-08-12T03:08:35;6.53;;;5.30;;
81056;SDS011;70563;50.084;14.468;2023-08-12T03:11:00;14.43;;;8.73;;
81056;SDS011;70563;50.084;14.468;2023-08-12T03:13:27;11.15;;;6.82;;
81056;SDS011;70563;50.084;14.468;2023-08-12T03:15:52;6.85;;;6.10;;
81056;SDS011;70563;50.084;14.468;2023-08-12T03:18:18;9.38;;;6.22;;
81056;SDS011;70563;50.084;14.468;2023-08-12T03:20:43;9.02;;;5.75;;
81056;SDS011;70563;50.084;14.468;2023-08-12T03:23:08;7.70;;;5.95;;
81056;SDS011;70563;50.084;14.468;2023-08-12T03:25:34;8.85;;;5.95;;
81056;SDS011;70563;50.084;14.468;2023-08-12T03:27:59;7.05;;;5.85;;
81056;SDS011;70563;50.084;14.468;2023-08-12T03:30:24;9.30;;;6.53;;
81056;SDS011;70563;50.084;14.468;2023-08-12T03:32:51;9.63;;;6.57;;
81056;SDS011;70563;50.084;14.468;2023-08-12T03:35:17;10.77;;;6.18;;
81056;SDS011;70563;50.084;14.468;2023-08-12T03:37:43;10.52;;;7.57;;
81056;SDS011;70563;50.084;14.468;2023-08-12T03:40:08;7.80;;;7.00;;
81056;SDS011;70563;50.084;14.468;2023-08-12T03:42:34;8.10;;;5.80;;
81056;SDS011;70563;50.084;14.468;2023-08-12T03:44:59;6.55;;;5.53;;
81056;SDS011;70563;50.084;14.468;2023-08-12T03:47:25;6.93;;;5.88;;
81056;SDS011;70563;50.084;14.468;2023-08-12T03:49:50;8.10;;;6.07;;
81056;SDS011;70563;50.084;14.468;2023-08-12T03:52:15;9.35;;;6.10;;
81056;SDS011;70563;50.084;14.468;2023-08-12T03:54:41;8.52;;;6.22;;
81056;SDS011;70563;50.084;14.468;2023-08-12T03:57:06;6.57;;;5.53;;
81056;SDS011;70563;50.084;14.468;2023-08-12T03:59:32;7.70;;;6.00;;
81056;SDS011;70563;50.084;14.468;2023-08-12T04:01:57;8.48;;;6.32;;
81056;SDS011;70563;50.084;14.468;2023-08-12T04:04:23;9.55;;;5.57;;
81056;SDS011;70563;50.084;14.468;2023-08-12T04:06:48;7.13;;;6.38;;
81056;SDS011;70563;50.084;14.468;2023-08-12T04:09:17;8.90;;;6.18;;
81056;SDS011;70563;50.084;14.468;2023-08-12T04:11:42;7.90;;;5.90;;
81056;SDS011;70563;50.084;14.468;2023-08-12T04:14:08;8.50;;;5.45;;
81056;SDS011;70563;50.084;14.468;2023-08-12T04:16:33;9.43;;;5.95;;
81056;SDS011;70563;50.084;14.468;2023-08-12T04:18:58;6.47;;;5.82;;
81056;SDS011;70563;50.084;14.468;2023-08-12T04:21:24;7.50;;;6.45;;
81056;SDS011;70563;50.084;14.468;2023-08-12T04:23:49;8.20;;;6.95;;
81056;SDS011;70563;50.084;14.468;2023-08-12T04:26:14;8.02;;;6.18;;
81056;SDS011;70563;50.084;14.468;2023-08-12T04:28:40;8.57;;;6.50;;
81056;SDS011;70563;50.084;14.468;2023-08-12T04:31:06;8.18;;;5.95;;
81056;SDS011;70563;50.084;14.468;2023-08-12T04:33:33;10.07;;;6.95;;
81056;SDS011;70563;50.084;14.468;2023-08-12T04:35:58;9.85;;;6.78;;
81056;SDS011;70563;50.084;14.468;2023-08-12T04:38:23;8.80;;;6.50;;
81056;SDS011;70563;50.084;14.468;2023-08-12T04:40:49;9.45;;;6.47;;
81056;SDS011;70563;50.084;14.468;2023-08-12T04:43:15;6.82;;;5.93;;
81056;SDS011;70563;50.084;14.468;2023-08-12T04:45:40;7.88;;;6.07;;
81056;SDS011;70563;50.084;14.468;2023-08-12T04:48:10;8.75;;;6.75;;
81056;SDS011;70563;50.084;14.468;2023-08-12T04:50:35;10.35;;;6.75;;
81056;SDS011;70563;50.084;14.468;2023-08-12T04:53:01;7.28;;;5.63;;
81056;SDS011;70563;50.084;14.468;2023-08-12T04:55:27;8.23;;;5.72;;
81056;SDS011;70563;50.084;14.468;2023-08-12T04:57:52;10.52;;;6.60;;
81056;SDS011;70563;50.084;14.468;2023-08-12T05:00:19;6.15;;;5.55;;
81056;SDS011;70563;50.084;14.468;2023-08-12T05:02:45;11.75;;;7.05;;
81056;SDS011;70563;50.084;14.468;2023-08-12T05:05:10;8.02;;;6.60;;
81056;SDS011;70563;50.084;14.468;2023-08-12T05:07:35;6.18;;;5.50;;
81056;SDS011;70563;50.084;14.468;2023-08-12T05:10:01;7.43;;;5.63;;
81056;SDS011;70563;50.084;14.468;2023-08-12T05:12:27;7.88;;;5.95;;
81056;SDS011;70563;50.084;14.468;2023-08-12T05:14:52;7.80;;;6.40;;
81056;SDS011;70563;50.084;14.468;2023-08-12T05:17:18;9.05;;;5.82;;
81056;SDS011;70563;50.084;14.468;2023-08-12T05:19:43;6.25;;;5.53;;
81056;SDS011;70563;50.084;14.468;2023-08-12T05:22:08;9.18;;;5.90;;
81056;SDS011;70563;50.084;14.468;2023-08-12T05:24:34;7.20;;;5.95;;
81056;SDS011;70563;50.084;14.468;2023-08-12T05:26:59;10.13;;;6.57;;
81056;SDS011;70563;50.084;14.468;2023-08-12T05:29:25;9.23;;;5.85;;
81056;SDS011;70563;50.084;14.468;2023-08-12T05:31:50;7.95;;;5.65;;
81056;SDS011;70563;50.084;14.468;2023-08-12T05:34:15;6.60;;;5.03;;
81056;SDS011;70563;50.084;14.468;2023-08-12T05:36:41;7.30;;;4.72;;
81056;SDS011;70563;50.084;14.468;2023-08-12T05:39:06;9.00;;;5.10;;
81056;SDS011;70563;50.084;14.468;2023-08-12T05:41:31;8.95;;;5.30;;
81056;SDS011;70563;50.084;14.468;2023-08-12T05:43:57;5.97;;;4.72;;
81056;SDS011;70563;50.084;14.468;2023-08-12T05:46:22;7.30;;;4.32;;
81056;SDS011;70563;50.084;14.468;2023-08-12T05:48:47;8.23;;;3.85;;
81056;SDS011;70563;50.084;14.468;2023-08-12T05:51:13;6.00;;;4.53;;
81056;SDS011;70563;50.084;14.468;2023-08-12T05:53:38;6.28;;;4.05;;
81056;SDS011;70563;50.084;14.468;2023-08-12T05:56:04;5.93;;;4.20;;
81056;SDS011;70563;50.084;14.468;2023-08-12T05:58:29;6.35;;;4.57;;
81056;SDS011;70563;50.084;14.468;2023-08-12T06:00:55;5.80;;;4.13;;
81056;SDS011;70563;50.084;14.468;2023-08-12T06:03:20;4.60;;;3.92;;
81056;SDS011;70563;50.084;14.468;2023-08-12T06:05:46;5.13;;;3.95;;
81056;SDS011;70563;50.084;14.468;2023-08-12T06:08:12;4.57;;;3.60;;
81056;SDS011;70563;50.084;14.468;2023-08-12T06:10:38;6.20;;;3.88;;
81056;SDS011;70563;50.084;14.468;2023-08-12T06:13:03;5.03;;;3.90;;
81056;SDS011;70563;50.084;14.468;2023-08-12T06:15:29;5.00;;;3.80;;
81056;SDS011;70563;50.084;14.468;2023-08-12T06:17:54;5.93;;;3.75;;
81056;SDS011;70563;50.084;14.468;2023-08-12T06:20:19;3.85;;;3.38;;
81056;SDS011;70563;50.084;14.468;2023-08-12T06:22:45;7.63;;;3.75;;
81056;SDS011;70563;50.084;14.468;2023-08-12T06:25:10;7.30;;;3.80;;
81056;SDS011;70563;50.084;14.468;2023-08-12T06:27:35;3.53;;;3.05;;
81056;SDS011;70563;50.084;14.468;2023-08-12T06:30:01;4.15;;;3.25;;
81056;SDS011;70563;50.084;14.468;2023-08-12T06:32:26;6.40;;;4.03;;
81056;SDS011;70563;50.084;14.468;2023-08-12T06:34:52;4.20;;;3.80;;
81056;SDS011;70563;50.084;14.468;2023-08-12T06:37:17;6.63;;;3.67;;
81056;SDS011;70563;50.084;14.468;2023-08-12T06:39:42;7.97;;;4.10;;
81056;SDS011;70563;50.084;14.468;2023-08-12T06:42:08;3.63;;;3.33;;
81056;SDS011;70563;50.084;14.468;2023-08-12T06:44:33;4.28;;;3.88;;
81056;SDS011;70563;50.084;14.468;2023-08-12T06:46:58;6.15;;;3.50;;
81056;SDS011;70563;50.084;14.468;2023-08-12T06:49:24;3.80;;;3.50;;
81056;SDS011;70563;50.084;14.468;2023-08-12T06:51:49;7.47;;;3.72;;
81056;SDS011;70563;50.084;14.468;2023-08-12T06:54:14;3.72;;;3.35;;
81056;SDS011;70563;50.084;14.468;2023-08-12T06:56:40;5.50;;;3.72;;
81056;SDS011;70563;50.084;14.468;2023-08-12T06:59:05;4.00;;;3.38;;
81056;SDS011;70563;50.084;14.468;2023-08-12T07:01:30;3.67;;;3.10;;
81056;SDS011;70563;50.084;14.468;2023-08-12T07:03:56;4.72;;;3.75;;
81056;SDS011;70563;50.084;14.468;2023-08-12T07:06:21;6.07;;;3.42;;
81056;SDS011;70563;50.084;14.468;2023-08-12T07:08:47;4.10;;;3.47;;
81056;SDS011;70563;50.084;14.468;2023-08-12T07:11:12;4.65;;;3.80;;
81056;SDS011;70563;50.084;14.468;2023-08-12T07:13:38;5.50;;;3.22;;
81056;SDS011;70563;50.084;14.468;2023-08-12T07:16:03;4.03;;;3.08;;
81056;SDS011;70563;50.084;14.468;2023-08-12T07:18:28;5.20;;;3.60;;
81056;SDS011;70563;50.084;14.468;2023-08-12T07:20:54;4.72;;;3.30;;
81056;SDS011;70563;50.084;14.468;2023-08-12T07:23:19;5.00;;;2.97;;
81056;SDS011;70563;50.084;14.468;2023-08-12T07:25:45;6.20;;;3.55;;
81056;SDS011;70563;50.084;14.468;2023-08-12T07:28:11;8.52;;;3.47;;
81056;SDS011;70563;50.084;14.468;2023-08-12T07:30:37;4.38;;;3.80;;
81056;SDS011;70563;50.084;14.468;2023-08-12T07:33:02;8.25;;;3.50;;
81056;SDS011;70563;50.084;14.468;2023-08-12T07:35:29;5.32;;;3.08;;
81056;SDS011;70563;50.084;14.468;2023-08-12T07:37:54;9.07;;;3.90;;
81056;SDS011;70563;50.084;14.468;2023-08-12T07:40:19;4.82;;;3.50;;
81056;SDS011;70563;50.084;14.468;2023-08-12T07:42:45;6.70;;;3.13;;
81056;SDS011;70563;50.084;14.468;2023-08-12T07:45:10;4.50;;;2.90;;
81056;SDS011;70563;50.084;14.468;2023-08-12T07:47:35;8.15;;;3.97;;
81056;SDS011;70563;50.084;14.468;2023-08-12T07:50:01;6.60;;;3.40;;
81056;SDS011;70563;50.084;14.468;2023-08-12T07:52:26;3.83;;;3.05;;
81056;SDS011;70563;50.084;14.468;2023-08-12T07:54:52;4.38;;;2.83;;
81056;SDS011;70563;50.084;14.468;2023-08-12T07:57:17;11.98;;;3.38;;
81056;SDS011;70563;50.084;14.468;2023-08-12T07:59:42;7.93;;;2.92;;
81056;SDS011;70563;50.084;14.468;2023-08-12T08:02:08;3.45;;;2.97;;
81056;SDS011;70563;50.084;14.468;2023-08-12T08:04:33;5.18;;;3.15;;
81056;SDS011;70563;50.084;14.468;2023-08-12T08:06:59;7.18;;;2.90;;
81056;SDS011;70563;50.084;14.468;2023-08-12T08:09:25;6.28;;;3.20;;
81056;SDS011;70563;50.084;14.468;2023-08-12T08:11:50;6.28;;;3.33;;
81056;SDS011;70563;50.084;14.468;2023-08-12T08:14:15;3.95;;;2.90;;
81056;SDS011;70563;50.084;14.468;2023-08-12T08:16:41;5.50;;;2.70;;
81056;SDS011;70563;50.084;14.468;2023-08-12T08:19:07;4.07;;;2.92;;
81056;SDS011;70563;50.084;14.468;2023-08-12T08:21:34;4.30;;;3.15;;
81056;SDS011;70563;50.084;14.468;2023-08-12T08:24:00;3.67;;;2.70;;
81056;SDS011;70563;50.084;14.468;2023-08-12T08:26:26;4.22;;;3.30;;
81056;SDS011;70563;50.084;14.468;2023-08-12T08:28:51;8.63;;;3.10;;
81056;SDS011;70563;50.084;14.468;2023-08-12T08:31:17;10.23;;;3.42;;
81056;SDS011;70563;50.084;14.468;2023-08-12T08:33:43;3.63;;;2.90;;
81056;SDS011;70563;50.084;14.468;2023-08-12T08:36:08;3.72;;;2.90;;
81056;SDS011;70563;50.084;14.468;2023-08-12T08:38:34;4.88;;;3.38;;
81056;SDS011;70563;50.084;14.468;2023-08-12T08:40:59;3.20;;;2.50;;
81056;SDS011;70563;50.084;14.468;2023-08-12T08:43:26;3.25;;;2.80;;
81056;SDS011;70563;50.084;14.468;2023-08-12T08:45:53;4.85;;;2.53;;
81056;SDS011;70563;50.084;14.468;2023-08-12T08:48:19;3.25;;;2.40;;
81056;SDS011;70563;50.084;14.468;2023-08-12T08:50:45;3.78;;;2.20;;
81056;SDS011;70563;50.084;14.468;2023-08-12T08:53:13;3.17;;;2.17;;
81056;SDS011;70563;50.084;14.468;2023-08-12T08:55:41;2.70;;;2.20;;
81056;SDS011;70563;50.084;14.468;2023-08-12T08:58:06;2.33;;;2.13;;
81056;SDS011;70563;50.084;14.468;2023-08-12T09:00:32;3.42;;;2.33;;
81056;SDS011;70563;50.084;14.468;2023-08-12T09:02:57;2.40;;;2.20;;
81056;SDS011;70563;50.084;14.468;2023-08-12T09:05:23;2.78;;;2.17;;
81056;SDS011;70563;50.084;14.468;2023-08-12T09:07:50;2.92;;;2.15;;
81056;SDS011;70563;50.084;14.468;2023-08-12T09:10:17;3.63;;;2.25;;
81056;SDS011;70563;50.084;14.468;2023-08-12T09:12:45;3.83;;;2.13;;
81056;SDS011;70563;50.084;14.468;2023-08-12T09:15:11;2.15;;;1.85;;
81056;SDS011;70563;50.084;14.468;2023-08-12T09:17:37;4.03;;;2.08;;
81056;SDS011;70563;50.084;14.468;2023-08-12T09:20:03;3.15;;;2.20;;
81056;SDS011;70563;50.084;14.468;2023-08-12T09:22:36;2.20;;;2.00;;
81056;SDS011;70563;50.084;14.468;2023-08-12T09:25:01;2.75;;;2.20;;
81056;SDS011;70563;50.084;14.468;2023-08-12T09:27:30;3.00;;;2.28;;
81056;SDS011;70563;50.084;14.468;2023-08-12T09:29:56;3.13;;;2.33;;
81056;SDS011;70563;50.084;14.468;2023-08-12T09:32:23;2.88;;;2.15;;
81056;SDS011;70563;50.084;14.468;2023-08-12T09:34:52;2.40;;;1.92;;
81056;SDS011;70563;50.084;14.468;2023-08-12T09:37:19;2.03;;;1.60;;
81056;SDS011;70563;50.084;14.468;2023-08-12T09:39:46;3.25;;;1.85;;
81056;SDS011;70563;50.084;14.468;2023-08-12T09:42:13;3.28;;;1.55;;
81056;SDS011;70563;50.084;14.468;2023-08-12T09:44:39;1.80;;;1.70;;
81056;SDS011;70563;50.084;14.468;2023-08-12T09:47:06;3.67;;;1.80;;
81056;SDS011;70563;50.084;14.468;2023-08-12T09:49:33;2.60;;;1.92;;
81056;SDS011;70563;50.084;14.468;2023-08-12T09:52:00;3.22;;;1.60;;
81056;SDS011;70563;50.084;14.468;2023-08-12T09:54:27;5.75;;;2.03;;
81056;SDS011;70563;50.084;14.468;2023-08-12T09:56:57;1.75;;;1.60;;
81056;SDS011;70563;50.084;14.468;2023-08-12T09:59:24;6.13;;;1.60;;
81056;SDS011;70563;50.084;14.468;2023-08-12T10:01:54;3.20;;;1.90;;
81056;SDS011;70563;50.084;14.468;2023-08-12T10:04:27;2.15;;;1.65;;
81056;SDS011;70563;50.084;14.468;2023-08-12T10:06:54;2.17;;;1.60;;
81056;SDS011;70563;50.084;14.468;2023-08-12T10:09:20;2.08;;;1.73;;
81056;SDS011;70563;50.084;14.468;2023-08-12T10:11:46;2.42;;;1.75;;
81056;SDS011;70563;50.084;14.468;2023-08-12T10:14:12;4.40;;;1.95;;
81056;SDS011;70563;50.084;14.468;2023-08-12T10:16:38;2.20;;;1.60;;
81056;SDS011;70563;50.084;14.468;2023-08-12T10:19:07;2.53;;;1.90;;
81056;SDS011;70563;50.084;14.468;2023-08-12T10:21:36;1.50;;;1.40;;
81056;SDS011;70563;50.084;14.468;2023-08-12T10:24:02;3.85;;;2.00;;
81056;SDS011;70563;50.084;14.468;2023-08-12T10:26:30;4.38;;;1.80;;
81056;SDS011;70563;50.084;14.468;2023-08-12T10:28:55;2.55;;;1.90;;
81056;SDS011;70563;50.084;14.468;2023-08-12T10:31:21;3.33;;;2.00;;
81056;SDS011;70563;50.084;14.468;2023-08-12T10:33:47;4.10;;;1.70;;
81056;SDS011;70563;50.084;14.468;2023-08-12T10:36:14;2.92;;;1.83;;
81056;SDS011;70563;50.084;14.468;2023-08-12T10:38:40;3.13;;;2.10;;
81056;SDS011;70563;50.084;14.468;2023-08-12T10:41:22;1.70;;;1.40;;
81056;SDS011;70563;50.084;14.468;2023-08-12T10:43:57;1.83;;;1.40;;
81056;SDS011;70563;50.084;14.468;2023-08-12T10:46:31;1.73;;;1.63;;
81056;SDS011;70563;50.084;14.468;2023-08-12T10:51:45;6.68;;;1.85;;
81056;SDS011;70563;50.084;14.468;2023-08-12T10:59:47;4.00;;;1.70;;
81056;SDS011;70563;50.084;14.468;2023-08-12T11:02:32;5.03;;;1.67;;
81056;SDS011;70563;50.084;14.468;2023-08-12T11:05:07;3.90;;;1.17;;
81056;SDS011;70563;50.084;14.468;2023-08-12T11:10:18;2.63;;;1.63;;
81056;SDS011;70563;50.084;14.468;2023-08-12T11:15:17;3.45;;;1.50;;
81056;SDS011;70563;50.084;14.468;2023-08-12T11:17:45;1.90;;;1.52;;
81056;SDS011;70563;50.084;14.468;2023-08-12T11:20:11;3.58;;;1.50;;
81056;SDS011;70563;50.084;14.468;2023-08-12T11:22:38;2.65;;;1.42;;
81056;SDS011;70563;50.084;14.468;2023-08-12T11:25:06;1.60;;;1.20;;
81056;SDS011;70563;50.084;14.468;2023-08-12T11:27:46;2.28;;;1.38;;
81056;SDS011;70563;50.084;14.468;2023-08-12T11:30:13;3.10;;;1.65;;
81056;SDS011;70563;50.084;14.468;2023-08-12T11:32:44;4.30;;;1.58;;
81056;SDS011;70563;50.084;14.468;2023-08-12T11:35:12;3.42;;;1.40;;
81056;SDS011;70563;50.084;14.468;2023-08-12T11:37:39;4.30;;;1.45;;
81056;SDS011;70563;50.084;14.468;2023-08-12T11:40:06;1.90;;;1.42;;
81056;SDS011;70563;50.084;14.468;2023-08-12T11:42:39;2.53;;;1.40;;
81056;SDS011;70563;50.084;14.468;2023-08-12T11:45:05;1.50;;;1.20;;
81056;SDS011;70563;50.084;14.468;2023-08-12T11:47:34;2.00;;;1.30;;
81056;SDS011;70563;50.084;14.468;2023-08-12T11:50:03;3.03;;;1.38;;
81056;SDS011;70563;50.084;14.468;2023-08-12T11:52:38;2.97;;;1.25;;
81056;SDS011;70563;50.084;14.468;2023-08-12T11:55:05;2.15;;;1.20;;
81056;SDS011;70563;50.084;14.468;2023-08-12T11:57:32;2.45;;;1.38;;
81056;SDS011;70563;50.084;14.468;2023-08-12T12:00:03;4.07;;;1.50;;
81056;SDS011;70563;50.084;14.468;2023-08-12T12:02:38;2.30;;;1.25;;
81056;SDS011;70563;50.084;14.468;2023-08-12T12:05:22;2.67;;;1.33;;
81056;SDS011;70563;50.084;14.468;2023-08-12T12:07:50;1.77;;;1.40;;
81056;SDS011;70563;50.084;14.468;2023-08-12T12:10:20;2.97;;;1.35;;
81056;SDS011;70563;50.084;14.468;2023-08-12T12:12:54;5.68;;;1.50;;
81056;SDS011;70563;50.084;14.468;2023-08-12T12:15:20;1.40;;;1.10;;
81056;SDS011;70563;50.084;14.468;2023-08-12T12:17:46;2.33;;;1.20;;
81056;SDS011;70563;50.084;14.468;2023-08-12T12:20:12;2.33;;;1.23;;
81056;SDS011;70563;50.084;14.468;2023-08-12T12:22:40;3.40;;;1.60;;
81056;SDS011;70563;50.084;14.468;2023-08-12T12:25:09;2.35;;;1.58;;
81056;SDS011;70563;50.084;14.468;2023-08-12T12:27:39;1.40;;;1.10;;
81056;SDS011;70563;50.084;14.468;2023-08-12T12:30:07;2.15;;;1.25;;
81056;SDS011;70563;50.084;14.468;2023-08-12T12:32:33;4.47;;;1.15;;
81056;SDS011;70563;50.084;14.468;2023-08-12T12:34:59;1.60;;;1.20;;
81056;SDS011;70563;50.084;14.468;2023-08-12T12:37:24;3.65;;;1.30;;
81056;SDS011;70563;50.084;14.468;2023-08-12T12:39:49;2.55;;;1.48;;
81056;SDS011;70563;50.084;14.468;2023-08-12T12:42:15;1.38;;;1.27;;
81056;SDS011;70563;50.084;14.468;2023-08-12T12:44:41;1.75;;;1.13;;
81056;SDS011;70563;50.084;14.468;2023-08-12T12:47:07;1.83;;;1.10;;
81056;SDS011;70563;50.084;14.468;2023-08-12T12:49:32;2.33;;;1.30;;
81056;SDS011;70563;50.084;14.468;2023-08-12T12:51:58;2.17;;;1.30;;
81056;SDS011;70563;50.084;14.468;2023-08-12T12:54:23;1.92;;;1.30;;
81056;SDS011;70563;50.084;14.468;2023-08-12T12:56:49;5.03;;;1.60;;
81056;SDS011;70563;50.084;14.468;2023-08-12T12:59:14;2.67;;;1.25;;
81056;SDS011;70563;50.084;14.468;2023-08-12T13:01:40;1.85;;;1.20;;
81056;SDS011;70563;50.084;14.468;2023-08-12T13:04:06;2.10;;;1.30;;
81056;SDS011;70563;50.084;14.468;2023-08-12T13:06:33;2.47;;;1.38;;
81056;SDS011;70563;50.084;14.468;2023-08-12T13:08:58;2.45;;;1.48;;
81056;SDS011;70563;50.084;14.468;2023-08-12T13:11:24;3.80;;;1.30;;
81056;SDS011;70563;50.084;14.468;2023-08-12T13:13:49;3.22;;;1.38;;
81056;SDS011;70563;50.084;14.468;2023-08-12T13:16:15;3.28;;;1.30;;
81056;SDS011;70563;50.084;14.468;2023-08-12T13:18:40;3.83;;;1.30;;
81056;SDS011;70563;50.084;14.468;2023-08-12T13:21:08;1.85;;;1.20;;
81056;SDS011;70563;50.084;14.468;2023-08-12T13:23:33;2.13;;;1.30;;
81056;SDS011;70563;50.084;14.468;2023-08-12T13:25:59;1.60;;;1.20;;
81056;SDS011;70563;50.084;14.468;2023-08-12T13:28:24;2.22;;;1.30;;
81056;SDS011;70563;50.084;14.468;2023-08-12T13:30:49;1.13;;;1.00;;
81056;SDS011;70563;50.084;14.468;2023-08-12T13:33:15;1.67;;;1.00;;
81056;SDS011;70563;50.084;14.468;2023-08-12T13:35:41;1.83;;;0.82;;
81056;SDS011;70563;50.084;14.468;2023-08-12T13:38:06;1.50;;;1.10;;
81056;SDS011;70563;50.084;14.468;2023-08-12T13:40:31;1.92;;;1.27;;
81056;SDS011;70563;50.084;14.468;2023-08-12T13:42:57;3.25;;;1.42;;
81056;SDS011;70563;50.084;14.468;2023-08-12T13:45:22;3.33;;;1.30;;
81056;SDS011;70563;50.084;14.468;2023-08-12T13:47:49;1.95;;;1.27;;
81056;SDS011;70563;50.084;14.468;2023-08-12T13:50:15;3.78;;;1.30;;
81056;SDS011;70563;50.084;14.468;2023-08-12T13:52:40;2.33;;;1.30;;
81056;SDS011;70563;50.084;14.468;2023-08-12T13:55:06;1.98;;;1.10;;
81056;SDS011;70563;50.084;14.468;2023-08-12T13:57:31;1.88;;;1.27;;
81056;SDS011;70563;50.084;14.468;2023-08-12T13:59:57;1.63;;;1.20;;
81056;SDS011;70563;50.084;14.468;2023-08-12T14:02:23;2.00;;;1.00;;
81056;SDS011;70563;50.084;14.468;2023-08-12T14:04:49;2.38;;;1.00;;
81056;SDS011;70563;50.084;14.468;2023-08-12T14:07:14;4.13;;;1.52;;
81056;SDS011;70563;50.084;14.468;2023-08-12T14:09:41;1.55;;;1.13;;
81056;SDS011;70563;50.084;14.468;2023-08-12T14:12:06;2.17;;;1.17;;
81056;SDS011;70563;50.084;14.468;2023-08-12T14:14:32;1.48;;;1.38;;
81056;SDS011;70563;50.084;14.468;2023-08-12T14:16:57;1.50;;;1.13;;
81056;SDS011;70563;50.084;14.468;2023-08-12T14:19:22;1.02;;;0.93;;
81056;SDS011;70563;50.084;14.468;2023-08-12T14:21:47;3.67;;;1.20;;
81056;SDS011;70563;50.084;14.468;2023-08-12T14:24:13;3.47;;;1.50;;
81056;SDS011;70563;50.084;14.468;2023-08-12T14:26:39;2.33;;;1.35;;
81056;SDS011;70563;50.084;14.468;2023-08-12T14:29:04;2.55;;;1.23;;
81056;SDS011;70563;50.084;14.468;2023-08-12T14:31:30;4.20;;;1.10;;
81056;SDS011;70563;50.084;14.468;2023-08-12T14:33:55;1.67;;;1.02;;
81056;SDS011;70563;50.084;14.468;2023-08-12T14:36:21;1.40;;;1.13;;
81056;SDS011;70563;50.084;14.468;2023-08-12T14:38:46;1.77;;;1.15;;
81056;SDS011;70563;50.084;14.468;2023-08-12T14:41:11;1.10;;;1.00;;
81056;SDS011;70563;50.084;14.468;2023-08-12T14:43:37;1.73;;;1.05;;